sensor_id;sensor_type;location;lat;lon;timestamp;P1;durP1;ratioP1;P2;durP2;ratioP2
58643;SDS011;44411;49.994;8.660;2023-06-26T00:03:28;7.57;;;4.80;;
58643;SDS011;44411;49.994;8.660;2023-06-26T00:05:54;7.45;;;5.28;;
58643;SDS011;44411;49.994;8.660;2023-06-26T00:08:19;7.47;;;4.60;;
58643;SDS011;44411;49.994;8.660;2023-06-26T00:10:44;8.00;;;5.30;;
58643;SDS011;44411;49.994;8.660;2023-06-26T00:13:11;6.50;;;4.43;;
58643;SDS011;44411;49.994;8.660;2023-06-26T00:15:37;9.00;;;5.70;;
58643;SDS011;44411;49.994;8.660;2023-06-26T00:18:02;6.77;;;4.77;;
58643;SDS011;44411;49.994;8.660;2023-06-26T00:20:28;8.18;;;5.43;;
58643;SDS011;44411;49.994;8.660;2023-06-26T00:22:53;8.30;;;5.47;;
58643;SDS011;44411;49.994;8.660;2023-06-26T00:25:20;7.78;;;4.82;;
58643;SDS011;44411;49.994;8.660;2023-06-26T00:27:45;7.32;;;5.18;;
58643;SDS011;44411;49.994;8.660;2023-06-26T00:30:11;8.23;;;5.43;;
58643;SDS011;44411;49.994;8.660;2023-06-26T00:32:36;8.45;;;5.50;;
58643;SDS011;44411;49.994;8.660;2023-06-26T00:35:01;8.47;;;5.30;;
58643;SDS011;44411;49.994;8.660;2023-06-26T00:37:27;8.87;;;5.63;;
58643;SDS011;44411;49.994;8.660;2023-06-26T00:39:52;8.88;;;5.80;;
58643;SDS011;44411;49.994;8.660;2023-06-26T00:42:17;9.15;;;5.43;;
58643;SDS011;44411;49.994;8.660;2023-06-26T00:44:43;7.43;;;5.53;;
58643;SDS011;44411;49.994;8.660;2023-06-26T00:47:08;10.23;;;5.90;;
58643;SDS011;44411;49.994;8.660;2023-06-26T00:49:34;7.50;;;5.38;;
58643;SDS011;44411;49.994;8.660;2023-06-26T00:51:59;7.07;;;4.77;;
58643;SDS011;44411;49.994;8.660;2023-06-26T00:54:24;7.77;;;5.37;;
58643;SDS011;44411;49.994;8.660;2023-06-26T00:56:50;7.45;;;5.38;;
58643;SDS011;44411;49.994;8.660;2023-06-26T00:59:15;9.70;;;5.23;;
58643;SDS011;44411;49.994;8.660;2023-06-26T01:01:41;6.80;;;5.10;;
58643;SDS011;44411;49.994;8.660;2023-06-26T01:04:06;7.80;;;5.27;;
58643;SDS011;44411;49.994;8.660;2023-06-26T01:06:31;7.18;;;4.85;;
58643;SDS011;44411;49.994;8.660;2023-06-26T01:09:00;7.57;;;5.30;;
58643;SDS011;44411;49.994;8.660;2023-06-26T01:11:26;7.75;;;5.40;;
58643;SDS011;44411;49.994;8.660;2023-06-26T01:13:51;7.90;;;5.53;;
58643;SDS011;44411;49.994;8.660;2023-06-26T01:16:16;8.57;;;5.47;;
58643;SDS011;44411;49.994;8.660;2023-06-26T01:18:44;7.82;;;5.35;;
58643;SDS011;44411;49.994;8.660;2023-06-26T01:21:10;7.90;;;5.65;;
58643;SDS011;44411;49.994;8.660;2023-06-26T01:23:38;6.85;;;5.18;;
58643;SDS011;44411;49.994;8.660;2023-06-26T01:28:32;7.55;;;5.40;;
58643;SDS011;44411;49.994;8.660;2023-06-26T01:30:58;6.70;;;5.03;;
58643;SDS011;44411;49.994;8.660;2023-06-26T01:33:24;7.68;;;5.15;;
58643;SDS011;44411;49.994;8.660;2023-06-26T01:35:49;7.10;;;5.20;;
58643;SDS011;44411;49.994;8.660;2023-06-26T01:38:19;7.55;;;5.47;;
58643;SDS011;44411;49.994;8.660;2023-06-26T01:40:44;7.05;;;4.95;;
58643;SDS011;44411;49.994;8.660;2023-06-26T01:45:54;9.20;;;5.85;;
58643;SDS011;44411;49.994;8.660;2023-06-26T01:48:22;7.85;;;5.18;;
58643;SDS011;44411;49.994;8.660;2023-06-26T01:50:48;6.85;;;5.15;;
58643;SDS011;44411;49.994;8.660;2023-06-26T01:53:18;7.00;;;4.70;;
58643;SDS011;44411;49.994;8.660;2023-06-26T01:55:47;8.93;;;5.85;;
58643;SDS011;44411;49.994;8.660;2023-06-26T01:58:13;8.73;;;5.70;;
58643;SDS011;44411;49.994;8.660;2023-06-26T02:00:38;8.32;;;5.20;;
58643;SDS011;44411;49.994;8.660;2023-06-26T02:03:04;8.02;;;5.47;;
58643;SDS011;44411;49.994;8.660;2023-06-26T02:05:31;9.52;;;5.13;;
58643;SDS011;44411;49.994;8.660;2023-06-26T02:07:56;7.15;;;5.50;;
58643;SDS011;44411;49.994;8.660;2023-06-26T02:10:21;7.78;;;5.15;;
58643;SDS011;44411;49.994;8.660;2023-06-26T02:12:47;7.95;;;5.45;;
58643;SDS011;44411;49.994;8.660;2023-06-26T02:15:12;10.77;;;5.23;;
58643;SDS011;44411;49.994;8.660;2023-06-26T02:17:37;8.03;;;5.43;;
58643;SDS011;44411;49.994;8.660;2023-06-26T02:20:02;10.37;;;6.17;;
58643;SDS011;44411;49.994;8.660;2023-06-26T02:22:28;9.43;;;5.82;;
58643;SDS011;44411;49.994;8.660;2023-06-26T02:24:53;9.15;;;5.18;;
58643;SDS011;44411;49.994;8.660;2023-06-26T02:27:19;8.63;;;5.60;;
58643;SDS011;44411;49.994;8.660;2023-06-26T02:29:44;8.00;;;5.50;;
58643;SDS011;44411;49.994;8.660;2023-06-26T02:32:09;9.00;;;6.13;;
58643;SDS011;44411;49.994;8.660;2023-06-26T02:34:34;10.85;;;5.80;;
58643;SDS011;44411;49.994;8.660;2023-06-26T02:37:00;9.60;;;5.70;;
58643;SDS011;44411;49.994;8.660;2023-06-26T02:39:25;9.27;;;6.43;;
58643;SDS011;44411;49.994;8.660;2023-06-26T02:41:51;9.20;;;5.85;;
58643;SDS011;44411;49.994;8.660;2023-06-26T02:44:18;8.00;;;5.88;;
58643;SDS011;44411;49.994;8.660;2023-06-26T02:46:43;8.27;;;6.25;;
58643;SDS011;44411;49.994;8.660;2023-06-26T02:49:09;9.77;;;6.50;;
58643;SDS011;44411;49.994;8.660;2023-06-26T02:51:34;9.07;;;7.03;;
58643;SDS011;44411;49.994;8.660;2023-06-26T02:53:59;9.47;;;6.43;;
58643;SDS011;44411;49.994;8.660;2023-06-26T02:56:25;8.65;;;5.75;;
58643;SDS011;44411;49.994;8.660;2023-06-26T02:58:54;8.57;;;6.45;;
58643;SDS011;44411;49.994;8.660;2023-06-26T03:01:19;9.57;;;6.10;;
58643;SDS011;44411;49.994;8.660;2023-06-26T03:03:45;10.55;;;6.93;;
58643;SDS011;44411;49.994;8.660;2023-06-26T03:06:12;8.32;;;6.10;;
58643;SDS011;44411;49.994;8.660;2023-06-26T03:08:37;9.50;;;6.10;;
58643;SDS011;44411;49.994;8.660;2023-06-26T03:11:04;11.18;;;6.50;;
58643;SDS011;44411;49.994;8.660;2023-06-26T03:13:29;8.97;;;6.23;;
58643;SDS011;44411;49.994;8.660;2023-06-26T03:15:54;8.97;;;6.27;;
58643;SDS011;44411;49.994;8.660;2023-06-26T03:18:19;9.60;;;6.73;;
58643;SDS011;44411;49.994;8.660;2023-06-26T03:20:45;9.63;;;6.73;;
58643;SDS011;44411;49.994;8.660;2023-06-26T03:23:10;12.13;;;6.50;;
58643;SDS011;44411;49.994;8.660;2023-06-26T03:25:35;10.60;;;6.97;;
58643;SDS011;44411;49.994;8.660;2023-06-26T03:28:00;9.83;;;6.70;;
58643;SDS011;44411;49.994;8.660;2023-06-26T03:30:26;10.50;;;7.17;;
58643;SDS011;44411;49.994;8.660;2023-06-26T03:32:51;9.27;;;6.20;;
58643;SDS011;44411;49.994;8.660;2023-06-26T03:35:16;10.43;;;6.82;;
58643;SDS011;44411;49.994;8.660;2023-06-26T03:37:41;9.85;;;7.43;;
58643;SDS011;44411;49.994;8.660;2023-06-26T03:40:07;10.53;;;6.17;;
58643;SDS011;44411;49.994;8.660;2023-06-26T03:42:32;8.88;;;6.30;;
58643;SDS011;44411;49.994;8.660;2023-06-26T03:44:57;9.03;;;6.20;;
58643;SDS011;44411;49.994;8.660;2023-06-26T03:47:23;10.57;;;5.53;;
58643;SDS011;44411;49.994;8.660;2023-06-26T03:49:48;7.63;;;5.97;;
58643;SDS011;44411;49.994;8.660;2023-06-26T03:52:13;7.17;;;5.27;;
58643;SDS011;44411;49.994;8.660;2023-06-26T03:54:38;7.47;;;4.93;;
58643;SDS011;44411;49.994;8.660;2023-06-26T03:57:03;9.37;;;5.27;;
58643;SDS011;44411;49.994;8.660;2023-06-26T03:59:29;8.68;;;5.38;;
58643;SDS011;44411;49.994;8.660;2023-06-26T04:01:54;7.35;;;5.07;;
58643;SDS011;44411;49.994;8.660;2023-06-26T04:04:19;7.77;;;5.23;;
58643;SDS011;44411;49.994;8.660;2023-06-26T04:06:44;7.57;;;4.63;;
58643;SDS011;44411;49.994;8.660;2023-06-26T04:09:10;6.83;;;5.40;;
58643;SDS011;44411;49.994;8.660;2023-06-26T04:11:35;8.43;;;5.57;;
58643;SDS011;44411;49.994;8.660;2023-06-26T04:14:00;7.67;;;5.20;;
58643;SDS011;44411;49.994;8.660;2023-06-26T04:16:25;8.60;;;5.37;;
58643;SDS011;44411;49.994;8.660;2023-06-26T04:18:51;8.03;;;5.20;;
58643;SDS011;44411;49.994;8.660;2023-06-26T04:21:17;9.77;;;5.25;;
58643;SDS011;44411;49.994;8.660;2023-06-26T04:23:42;9.77;;;6.38;;
58643;SDS011;44411;49.994;8.660;2023-06-26T04:26:08;7.50;;;5.13;;
58643;SDS011;44411;49.994;8.660;2023-06-26T04:28:33;7.80;;;5.55;;
58643;SDS011;44411;49.994;8.660;2023-06-26T04:30:59;10.23;;;6.15;;
58643;SDS011;44411;49.994;8.660;2023-06-26T04:33:25;8.88;;;5.97;;
58643;SDS011;44411;49.994;8.660;2023-06-26T04:35:53;9.48;;;5.47;;
58643;SDS011;44411;49.994;8.660;2023-06-26T04:38:19;8.30;;;5.03;;
58643;SDS011;44411;49.994;8.660;2023-06-26T04:40:44;9.73;;;5.32;;
58643;SDS011;44411;49.994;8.660;2023-06-26T04:43:09;9.10;;;5.90;;
58643;SDS011;44411;49.994;8.660;2023-06-26T04:45:35;9.82;;;5.50;;
58643;SDS011;44411;49.994;8.660;2023-06-26T04:48:00;9.07;;;5.93;;
58643;SDS011;44411;49.994;8.660;2023-06-26T04:50:25;10.00;;;6.03;;
58643;SDS011;44411;49.994;8.660;2023-06-26T04:52:51;8.90;;;5.85;;
58643;SDS011;44411;49.994;8.660;2023-06-26T04:55:16;8.63;;;5.93;;
58643;SDS011;44411;49.994;8.660;2023-06-26T04:57:41;10.33;;;6.33;;
58643;SDS011;44411;49.994;8.660;2023-06-26T05:00:06;10.60;;;6.63;;
58643;SDS011;44411;49.994;8.660;2023-06-26T05:02:35;10.23;;;6.77;;
58643;SDS011;44411;49.994;8.660;2023-06-26T05:05:01;11.33;;;6.97;;
58643;SDS011;44411;49.994;8.660;2023-06-26T05:07:26;10.55;;;7.07;;
58643;SDS011;44411;49.994;8.660;2023-06-26T05:09:51;9.60;;;6.82;;
58643;SDS011;44411;49.994;8.660;2023-06-26T05:12:16;11.70;;;6.93;;
58643;SDS011;44411;49.994;8.660;2023-06-26T05:14:41;10.10;;;7.03;;
58643;SDS011;44411;49.994;8.660;2023-06-26T05:17:07;8.60;;;6.07;;
58643;SDS011;44411;49.994;8.660;2023-06-26T05:19:32;10.40;;;6.87;;
58643;SDS011;44411;49.994;8.660;2023-06-26T05:21:57;8.60;;;6.53;;
58643;SDS011;44411;49.994;8.660;2023-06-26T05:24:24;10.70;;;7.55;;
58643;SDS011;44411;49.994;8.660;2023-06-26T05:26:49;12.93;;;7.43;;
58643;SDS011;44411;49.994;8.660;2023-06-26T05:29:14;12.85;;;8.68;;
58643;SDS011;44411;49.994;8.660;2023-06-26T05:31:40;11.68;;;7.32;;
58643;SDS011;44411;49.994;8.660;2023-06-26T05:34:06;10.48;;;7.30;;
58643;SDS011;44411;49.994;8.660;2023-06-26T05:36:32;11.60;;;7.15;;
58643;SDS011;44411;49.994;8.660;2023-06-26T05:38:58;12.88;;;8.30;;
58643;SDS011;44411;49.994;8.660;2023-06-26T05:41:24;10.85;;;7.72;;
58643;SDS011;44411;49.994;8.660;2023-06-26T05:43:49;12.38;;;7.50;;
58643;SDS011;44411;49.994;8.660;2023-06-26T05:46:14;10.93;;;7.55;;
58643;SDS011;44411;49.994;8.660;2023-06-26T05:48:40;11.50;;;7.50;;
58643;SDS011;44411;49.994;8.660;2023-06-26T05:51:05;10.93;;;7.27;;
58643;SDS011;44411;49.994;8.660;2023-06-26T05:53:30;11.75;;;7.53;;
58643;SDS011;44411;49.994;8.660;2023-06-26T05:55:56;9.60;;;7.20;;
58643;SDS011;44411;49.994;8.660;2023-06-26T05:58:21;8.93;;;7.07;;
58643;SDS011;44411;49.994;8.660;2023-06-26T06:00:47;10.15;;;7.13;;
58643;SDS011;44411;49.994;8.660;2023-06-26T06:03:12;9.40;;;7.43;;
58643;SDS011;44411;49.994;8.660;2023-06-26T06:05:38;10.17;;;7.10;;
58643;SDS011;44411;49.994;8.660;2023-06-26T06:08:03;9.32;;;6.95;;
58643;SDS011;44411;49.994;8.660;2023-06-26T06:10:28;12.32;;;7.53;;
58643;SDS011;44411;49.994;8.660;2023-06-26T06:12:53;9.93;;;6.67;;
58643;SDS011;44411;49.994;8.660;2023-06-26T06:15:19;10.57;;;7.38;;
58643;SDS011;44411;49.994;8.660;2023-06-26T06:17:44;9.90;;;7.37;;
58643;SDS011;44411;49.994;8.660;2023-06-26T06:20:10;9.63;;;7.23;;
58643;SDS011;44411;49.994;8.660;2023-06-26T06:22:35;10.80;;;6.97;;
58643;SDS011;44411;49.994;8.660;2023-06-26T06:25:00;10.13;;;6.30;;
58643;SDS011;44411;49.994;8.660;2023-06-26T06:27:25;11.53;;;7.67;;
58643;SDS011;44411;49.994;8.660;2023-06-26T06:29:51;10.50;;;6.85;;
58643;SDS011;44411;49.994;8.660;2023-06-26T06:32:16;10.87;;;7.43;;
58643;SDS011;44411;49.994;8.660;2023-06-26T06:34:41;9.50;;;6.57;;
58643;SDS011;44411;49.994;8.660;2023-06-26T06:37:06;9.00;;;6.57;;
58643;SDS011;44411;49.994;8.660;2023-06-26T06:39:32;9.18;;;6.47;;
58643;SDS011;44411;49.994;8.660;2023-06-26T06:41:57;9.63;;;7.07;;
58643;SDS011;44411;49.994;8.660;2023-06-26T06:44:25;8.83;;;6.20;;
58643;SDS011;44411;49.994;8.660;2023-06-26T06:46:50;13.50;;;7.03;;
58643;SDS011;44411;49.994;8.660;2023-06-26T06:49:15;10.43;;;7.30;;
58643;SDS011;44411;49.994;8.660;2023-06-26T06:51:41;11.40;;;6.60;;
58643;SDS011;44411;49.994;8.660;2023-06-26T06:54:06;9.73;;;7.37;;
58643;SDS011;44411;49.994;8.660;2023-06-26T06:56:31;9.83;;;7.30;;
58643;SDS011;44411;49.994;8.660;2023-06-26T06:58:56;11.68;;;6.43;;
58643;SDS011;44411;49.994;8.660;2023-06-26T07:01:22;10.23;;;6.23;;
58643;SDS011;44411;49.994;8.660;2023-06-26T07:03:47;10.27;;;6.87;;
58643;SDS011;44411;49.994;8.660;2023-06-26T07:06:12;9.20;;;6.60;;
58643;SDS011;44411;49.994;8.660;2023-06-26T07:08:37;8.30;;;6.27;;
58643;SDS011;44411;49.994;8.660;2023-06-26T07:11:03;8.68;;;6.40;;
58643;SDS011;44411;49.994;8.660;2023-06-26T07:13:28;8.43;;;6.27;;
58643;SDS011;44411;49.994;8.660;2023-06-26T07:15:53;8.03;;;6.00;;
58643;SDS011;44411;49.994;8.660;2023-06-26T07:18:19;9.13;;;6.63;;
58643;SDS011;44411;49.994;8.660;2023-06-26T07:20:44;9.60;;;6.80;;
58643;SDS011;44411;49.994;8.660;2023-06-26T07:23:09;10.00;;;6.53;;
58643;SDS011;44411;49.994;8.660;2023-06-26T07:25:34;10.73;;;6.57;;
58643;SDS011;44411;49.994;8.660;2023-06-26T07:28:00;9.48;;;6.18;;
58643;SDS011;44411;49.994;8.660;2023-06-26T07:30:25;9.60;;;6.10;;
58643;SDS011;44411;49.994;8.660;2023-06-26T07:32:50;8.00;;;6.00;;
58643;SDS011;44411;49.994;8.660;2023-06-26T07:35:16;9.83;;;6.70;;
58643;SDS011;44411;49.994;8.660;2023-06-26T07:37:41;9.15;;;6.35;;
58643;SDS011;44411;49.994;8.660;2023-06-26T07:40:07;8.20;;;5.25;;
58643;SDS011;44411;49.994;8.660;2023-06-26T07:42:32;8.43;;;5.53;;
58643;SDS011;44411;49.994;8.660;2023-06-26T07:44:57;9.10;;;5.00;;
58643;SDS011;44411;49.994;8.660;2023-06-26T07:47:23;8.53;;;6.00;;
58643;SDS011;44411;49.994;8.660;2023-06-26T07:49:48;9.17;;;6.17;;
58643;SDS011;44411;49.994;8.660;2023-06-26T07:52:14;8.00;;;5.83;;
58643;SDS011;44411;49.994;8.660;2023-06-26T07:54:40;9.18;;;6.13;;
58643;SDS011;44411;49.994;8.660;2023-06-26T07:57:05;8.38;;;5.60;;
58643;SDS011;44411;49.994;8.660;2023-06-26T07:59:33;8.95;;;6.00;;
58643;SDS011;44411;49.994;8.660;2023-06-26T08:01:59;10.17;;;5.53;;
58643;SDS011;44411;49.994;8.660;2023-06-26T08:04:25;9.02;;;5.45;;
58643;SDS011;44411;49.994;8.660;2023-06-26T08:06:55;10.80;;;6.40;;
58643;SDS011;44411;49.994;8.660;2023-06-26T08:09:21;7.80;;;5.97;;
58643;SDS011;44411;49.994;8.660;2023-06-26T08:11:47;7.97;;;5.30;;
58643;SDS011;44411;49.994;8.660;2023-06-26T08:14:12;9.27;;;6.43;;
58643;SDS011;44411;49.994;8.660;2023-06-26T08:16:41;9.85;;;6.05;;
58643;SDS011;44411;49.994;8.660;2023-06-26T08:19:06;8.13;;;5.90;;
58643;SDS011;44411;49.994;8.660;2023-06-26T08:21:32;13.75;;;6.30;;
58643;SDS011;44411;49.994;8.660;2023-06-26T08:23:57;7.57;;;6.00;;
58643;SDS011;44411;49.994;8.660;2023-06-26T08:26:22;9.33;;;6.00;;
58643;SDS011;44411;49.994;8.660;2023-06-26T08:28:47;8.23;;;6.00;;
58643;SDS011;44411;49.994;8.660;2023-06-26T08:31:13;9.10;;;5.90;;
58643;SDS011;44411;49.994;8.660;2023-06-26T08:33:38;8.57;;;5.97;;
58643;SDS011;44411;49.994;8.660;2023-06-26T08:36:03;7.03;;;5.28;;
58643;SDS011;44411;49.994;8.660;2023-06-26T08:38:28;7.87;;;5.10;;
58643;SDS011;44411;49.994;8.660;2023-06-26T08:40:54;9.47;;;6.20;;
58643;SDS011;44411;49.994;8.660;2023-06-26T08:43:19;7.80;;;5.43;;
58643;SDS011;44411;49.994;8.660;2023-06-26T08:45:46;9.90;;;6.00;;
58643;SDS011;44411;49.994;8.660;2023-06-26T08:50:41;6.93;;;5.25;;
58643;SDS011;44411;49.994;8.660;2023-06-26T08:53:14;10.18;;;5.68;;
58643;SDS011;44411;49.994;8.660;2023-06-26T08:55:43;7.97;;;5.63;;
58643;SDS011;44411;49.994;8.660;2023-06-26T08:58:08;10.10;;;5.40;;
58643;SDS011;44411;49.994;8.660;2023-06-26T09:00:34;7.60;;;5.47;;
58643;SDS011;44411;49.994;8.660;2023-06-26T09:02:59;8.32;;;5.32;;
58643;SDS011;44411;49.994;8.660;2023-06-26T09:05:26;6.93;;;5.88;;
58643;SDS011;44411;49.994;8.660;2023-06-26T09:07:52;8.30;;;5.15;;
58643;SDS011;44411;49.994;8.660;2023-06-26T09:10:20;6.95;;;5.18;;
58643;SDS011;44411;49.994;8.660;2023-06-26T09:12:46;9.90;;;5.90;;
58643;SDS011;44411;49.994;8.660;2023-06-26T09:15:13;8.70;;;5.55;;
58643;SDS011;44411;49.994;8.660;2023-06-26T09:17:39;7.72;;;5.07;;
58643;SDS011;44411;49.994;8.660;2023-06-26T09:20:08;9.02;;;5.75;;
58643;SDS011;44411;49.994;8.660;2023-06-26T09:22:34;7.00;;;5.13;;
58643;SDS011;44411;49.994;8.660;2023-06-26T09:25:01;7.90;;;5.47;;
58643;SDS011;44411;49.994;8.660;2023-06-26T09:27:26;7.57;;;4.88;;
58643;SDS011;44411;49.994;8.660;2023-06-26T09:29:51;7.57;;;5.37;;
58643;SDS011;44411;49.994;8.660;2023-06-26T09:32:16;8.53;;;5.07;;
58643;SDS011;44411;49.994;8.660;2023-06-26T09:34:42;7.55;;;5.47;;
58643;SDS011;44411;49.994;8.660;2023-06-26T09:37:11;8.23;;;5.15;;
58643;SDS011;44411;49.994;8.660;2023-06-26T09:39:36;8.43;;;5.60;;
58643;SDS011;44411;49.994;8.660;2023-06-26T09:42:01;6.63;;;4.77;;
58643;SDS011;44411;49.994;8.660;2023-06-26T09:44:27;8.43;;;4.55;;
58643;SDS011;44411;49.994;8.660;2023-06-26T09:46:55;6.80;;;4.80;;
58643;SDS011;44411;49.994;8.660;2023-06-26T09:49:20;7.90;;;5.38;;
58643;SDS011;44411;49.994;8.660;2023-06-26T09:51:46;7.18;;;5.07;;
58643;SDS011;44411;49.994;8.660;2023-06-26T09:54:12;7.22;;;4.65;;
58643;SDS011;44411;49.994;8.660;2023-06-26T09:56:37;6.70;;;4.82;;
58643;SDS011;44411;49.994;8.660;2023-06-26T09:59:03;6.30;;;4.95;;
58643;SDS011;44411;49.994;8.660;2023-06-26T10:01:29;6.97;;;4.78;;
58643;SDS011;44411;49.994;8.660;2023-06-26T10:03:54;6.28;;;4.43;;
58643;SDS011;44411;49.994;8.660;2023-06-26T10:06:24;6.93;;;4.80;;
58643;SDS011;44411;49.994;8.660;2023-06-26T10:08:51;6.35;;;4.90;;
58643;SDS011;44411;49.994;8.660;2023-06-26T10:11:19;6.70;;;4.80;;
58643;SDS011;44411;49.994;8.660;2023-06-26T10:13:46;6.50;;;4.80;;
58643;SDS011;44411;49.994;8.660;2023-06-26T10:16:13;6.32;;;4.55;;
58643;SDS011;44411;49.994;8.660;2023-06-26T10:18:42;6.50;;;4.60;;
58643;SDS011;44411;49.994;8.660;2023-06-26T10:21:08;7.30;;;5.50;;
58643;SDS011;44411;49.994;8.660;2023-06-26T10:23:35;6.40;;;4.75;;
58643;SDS011;44411;49.994;8.660;2023-06-26T10:26:01;6.15;;;4.70;;
58643;SDS011;44411;49.994;8.660;2023-06-26T10:28:27;6.72;;;4.80;;
58643;SDS011;44411;49.994;8.660;2023-06-26T10:30:53;5.80;;;4.05;;
58643;SDS011;44411;49.994;8.660;2023-06-26T10:33:19;6.70;;;4.93;;
58643;SDS011;44411;49.994;8.660;2023-06-26T10:35:45;7.90;;;5.18;;
58643;SDS011;44411;49.994;8.660;2023-06-26T10:38:10;7.50;;;5.18;;
58643;SDS011;44411;49.994;8.660;2023-06-26T10:43:07;8.50;;;4.38;;
58643;SDS011;44411;49.994;8.660;2023-06-26T10:45:33;8.23;;;4.30;;
58643;SDS011;44411;49.994;8.660;2023-06-26T10:47:58;6.30;;;4.53;;
58643;SDS011;44411;49.994;8.660;2023-06-26T10:50:24;7.27;;;4.60;;
58643;SDS011;44411;49.994;8.660;2023-06-26T10:55:34;6.20;;;4.10;;
58643;SDS011;44411;49.994;8.660;2023-06-26T10:58:00;7.93;;;5.00;;
58643;SDS011;44411;49.994;8.660;2023-06-26T11:00:26;7.72;;;4.90;;
58643;SDS011;44411;49.994;8.660;2023-06-26T11:02:52;6.43;;;4.20;;
58643;SDS011;44411;49.994;8.660;2023-06-26T11:05:27;7.18;;;4.93;;
58643;SDS011;44411;49.994;8.660;2023-06-26T11:08:02;6.55;;;4.07;;
58643;SDS011;44411;49.994;8.660;2023-06-26T11:10:28;7.35;;;4.55;;
58643;SDS011;44411;49.994;8.660;2023-06-26T11:12:53;8.27;;;4.55;;
58643;SDS011;44411;49.994;8.660;2023-06-26T11:15:19;6.78;;;4.38;;
58643;SDS011;44411;49.994;8.660;2023-06-26T11:17:45;7.40;;;4.47;;
58643;SDS011;44411;49.994;8.660;2023-06-26T11:20:14;6.97;;;4.68;;
58643;SDS011;44411;49.994;8.660;2023-06-26T11:22:42;7.82;;;4.80;;
58643;SDS011;44411;49.994;8.660;2023-06-26T11:25:08;7.32;;;4.35;;
58643;SDS011;44411;49.994;8.660;2023-06-26T11:30:01;7.53;;;4.20;;
58643;SDS011;44411;49.994;8.660;2023-06-26T11:32:27;6.65;;;4.70;;
58643;SDS011;44411;49.994;8.660;2023-06-26T11:34:54;7.25;;;4.97;;
58643;SDS011;44411;49.994;8.660;2023-06-26T11:37:19;6.77;;;4.33;;
58643;SDS011;44411;49.994;8.660;2023-06-26T11:39:44;9.18;;;5.20;;
58643;SDS011;44411;49.994;8.660;2023-06-26T11:42:10;6.83;;;4.83;;
58643;SDS011;44411;49.994;8.660;2023-06-26T11:44:39;6.32;;;5.10;;
58643;SDS011;44411;49.994;8.660;2023-06-26T11:47:05;6.35;;;4.55;;
58643;SDS011;44411;49.994;8.660;2023-06-26T11:54:40;7.97;;;4.72;;
58643;SDS011;44411;49.994;8.660;2023-06-26T11:57:05;10.43;;;4.47;;
58643;SDS011;44411;49.994;8.660;2023-06-26T11:59:34;6.53;;;4.50;;
58643;SDS011;44411;49.994;8.660;2023-06-26T12:02:00;8.10;;;5.13;;
58643;SDS011;44411;49.994;8.660;2023-06-26T12:04:27;7.57;;;4.65;;
58643;SDS011;44411;49.994;8.660;2023-06-26T12:06:54;6.88;;;4.70;;
58643;SDS011;44411;49.994;8.660;2023-06-26T12:09:22;7.15;;;4.68;;
58643;SDS011;44411;49.994;8.660;2023-06-26T12:11:48;6.65;;;4.95;;
58643;SDS011;44411;49.994;8.660;2023-06-26T12:14:14;6.60;;;4.30;;
58643;SDS011;44411;49.994;8.660;2023-06-26T12:16:39;6.80;;;4.28;;
58643;SDS011;44411;49.994;8.660;2023-06-26T12:19:06;7.90;;;5.22;;
58643;SDS011;44411;49.994;8.660;2023-06-26T12:21:44;7.13;;;4.82;;
58643;SDS011;44411;49.994;8.660;2023-06-26T12:24:12;6.82;;;4.60;;
58643;SDS011;44411;49.994;8.660;2023-06-26T12:26:37;7.00;;;5.15;;
58643;SDS011;44411;49.994;8.660;2023-06-26T12:29:03;7.63;;;5.40;;
58643;SDS011;44411;49.994;8.660;2023-06-26T12:31:28;7.93;;;5.25;;
58643;SDS011;44411;49.994;8.660;2023-06-26T12:33:53;8.83;;;6.60;;
58643;SDS011;44411;49.994;8.660;2023-06-26T12:36:19;8.93;;;6.18;;
58643;SDS011;44411;49.994;8.660;2023-06-26T12:38:45;7.57;;;6.10;;
58643;SDS011;44411;49.994;8.660;2023-06-26T12:41:14;8.55;;;6.47;;
58643;SDS011;44411;49.994;8.660;2023-06-26T12:43:39;11.20;;;6.57;;
58643;SDS011;44411;49.994;8.660;2023-06-26T12:46:05;10.00;;;6.35;;
58643;SDS011;44411;49.994;8.660;2023-06-26T12:48:41;9.15;;;6.63;;
58643;SDS011;44411;49.994;8.660;2023-06-26T12:51:11;9.95;;;7.13;;
58643;SDS011;44411;49.994;8.660;2023-06-26T12:53:37;9.13;;;6.43;;
58643;SDS011;44411;49.994;8.660;2023-06-26T12:56:04;9.27;;;6.10;;
58643;SDS011;44411;49.994;8.660;2023-06-26T12:58:30;8.77;;;5.80;;
58643;SDS011;44411;49.994;8.660;2023-06-26T13:00:55;8.63;;;5.87;;
58643;SDS011;44411;49.994;8.660;2023-06-26T13:03:22;7.55;;;4.82;;
58643;SDS011;44411;49.994;8.660;2023-06-26T13:05:47;8.63;;;5.27;;
58643;SDS011;44411;49.994;8.660;2023-06-26T13:08:12;8.10;;;4.57;;
58643;SDS011;44411;49.994;8.660;2023-06-26T13:10:38;7.57;;;4.87;;
58643;SDS011;44411;49.994;8.660;2023-06-26T13:13:04;6.97;;;4.30;;
58643;SDS011;44411;49.994;8.660;2023-06-26T13:15:30;8.63;;;4.83;;
58643;SDS011;44411;49.994;8.660;2023-06-26T13:17:55;7.93;;;4.97;;
58643;SDS011;44411;49.994;8.660;2023-06-26T13:20:20;8.43;;;4.77;;
58643;SDS011;44411;49.994;8.660;2023-06-26T13:22:47;6.43;;;4.40;;
58643;SDS011;44411;49.994;8.660;2023-06-26T13:25:12;6.28;;;4.32;;
58643;SDS011;44411;49.994;8.660;2023-06-26T13:27:37;7.70;;;5.10;;
58643;SDS011;44411;49.994;8.660;2023-06-26T13:30:02;6.33;;;4.53;;
58643;SDS011;44411;49.994;8.660;2023-06-26T13:32:28;7.18;;;4.15;;
58643;SDS011;44411;49.994;8.660;2023-06-26T13:34:53;8.60;;;5.30;;
58643;SDS011;44411;49.994;8.660;2023-06-26T13:37:19;7.18;;;4.80;;
58643;SDS011;44411;49.994;8.660;2023-06-26T13:39:44;7.57;;;4.43;;
58643;SDS011;44411;49.994;8.660;2023-06-26T13:42:14;9.23;;;4.57;;
58643;SDS011;44411;49.994;8.660;2023-06-26T13:44:39;8.27;;;4.97;;
58643;SDS011;44411;49.994;8.660;2023-06-26T13:47:05;5.87;;;3.90;;
58643;SDS011;44411;49.994;8.660;2023-06-26T13:49:30;6.07;;;3.95;;
58643;SDS011;44411;49.994;8.660;2023-06-26T13:51:55;10.00;;;4.63;;
58643;SDS011;44411;49.994;8.660;2023-06-26T13:54:20;8.93;;;4.47;;
58643;SDS011;44411;49.994;8.660;2023-06-26T13:56:45;6.07;;;4.00;;
58643;SDS011;44411;49.994;8.660;2023-06-26T13:59:11;6.47;;;3.95;;
58643;SDS011;44411;49.994;8.660;2023-06-26T14:01:36;6.60;;;4.28;;
58643;SDS011;44411;49.994;8.660;2023-06-26T14:04:03;6.97;;;3.53;;
58643;SDS011;44411;49.994;8.660;2023-06-26T14:06:28;6.65;;;3.60;;
58643;SDS011;44411;49.994;8.660;2023-06-26T14:08:55;6.07;;;3.80;;
58643;SDS011;44411;49.994;8.660;2023-06-26T14:11:20;7.57;;;3.83;;
58643;SDS011;44411;49.994;8.660;2023-06-26T14:13:47;6.80;;;3.42;;
58643;SDS011;44411;49.994;8.660;2023-06-26T14:16:12;5.63;;;3.53;;
58643;SDS011;44411;49.994;8.660;2023-06-26T14:18:38;5.97;;;3.38;;
58643;SDS011;44411;49.994;8.660;2023-06-26T14:21:03;6.50;;;3.60;;
58643;SDS011;44411;49.994;8.660;2023-06-26T14:23:29;6.72;;;3.58;;
58643;SDS011;44411;49.994;8.660;2023-06-26T14:25:54;6.73;;;3.10;;
58643;SDS011;44411;49.994;8.660;2023-06-26T14:28:19;6.83;;;3.63;;
58643;SDS011;44411;49.994;8.660;2023-06-26T14:30:44;4.93;;;2.90;;
58643;SDS011;44411;49.994;8.660;2023-06-26T14:33:10;5.57;;;2.80;;
58643;SDS011;44411;49.994;8.660;2023-06-26T14:35:35;6.80;;;3.17;;
58643;SDS011;44411;49.994;8.660;2023-06-26T14:38:00;7.65;;;3.03;;
58643;SDS011;44411;49.994;8.660;2023-06-26T14:40:25;6.67;;;2.70;;
58643;SDS011;44411;49.994;8.660;2023-06-26T14:42:51;5.03;;;3.40;;
58643;SDS011;44411;49.994;8.660;2023-06-26T14:45:18;5.03;;;2.70;;
58643;SDS011;44411;49.994;8.660;2023-06-26T14:47:43;4.90;;;3.10;;
58643;SDS011;44411;49.994;8.660;2023-06-26T14:50:08;5.28;;;2.70;;
58643;SDS011;44411;49.994;8.660;2023-06-26T14:52:34;4.55;;;2.50;;
58643;SDS011;44411;49.994;8.660;2023-06-26T14:54:59;8.93;;;2.70;;
58643;SDS011;44411;49.994;8.660;2023-06-26T14:57:24;5.30;;;2.53;;
58643;SDS011;44411;49.994;8.660;2023-06-26T14:59:49;8.43;;;3.23;;